sensor_id;sensor_type;location;lat;lon;timestamp;P1;durP1;ratioP1;P2;durP2;ratioP2
44048;SDS011;29717;47.028;15.470;2024-03-23T00:55:31;8.90;;;6.80;;
44048;SDS011;29717;47.028;15.470;2024-03-23T00:57:57;7.97;;;7.07;;
44048;SDS011;29717;47.028;15.470;2024-03-23T01:00:23;9.13;;;7.28;;
44048;SDS011;29717;47.028;15.470;2024-03-23T01:02:49;10.10;;;7.18;;
44048;SDS011;29717;47.028;15.470;2024-03-23T01:05:16;9.48;;;7.07;;
44048;SDS011;29717;47.028;15.470;2024-03-23T01:07:41;10.40;;;6.65;;
44048;SDS011;29717;47.028;15.470;2024-03-23T01:10:08;9.82;;;7.22;;
44048;SDS011;29717;47.028;15.470;2024-03-23T01:12:36;9.50;;;6.63;;
44048;SDS011;29717;47.028;15.470;2024-03-23T01:15:02;11.23;;;7.00;;
44048;SDS011;29717;47.028;15.470;2024-03-23T01:17:28;10.00;;;6.07;;
44048;SDS011;29717;47.028;15.470;2024-03-23T01:19:55;9.73;;;7.40;;
44048;SDS011;29717;47.028;15.470;2024-03-23T01:22:21;10.13;;;7.07;;
44048;SDS011;29717;47.028;15.470;2024-03-23T01:24:47;8.02;;;7.22;;
44048;SDS011;29717;47.028;15.470;2024-03-23T01:27:13;11.60;;;6.97;;
44048;SDS011;29717;47.028;15.470;2024-03-23T01:29:41;8.40;;;7.20;;
44048;SDS011;29717;47.028;15.470;2024-03-23T01:32:07;7.50;;;6.53;;
44048;SDS011;29717;47.028;15.470;2024-03-23T01:34:33;8.75;;;7.35;;
44048;SDS011;29717;47.028;15.470;2024-03-23T01:36:59;7.22;;;6.30;;
44048;SDS011;29717;47.028;15.470;2024-03-23T01:39:26;8.45;;;6.82;;
44048;SDS011;29717;47.028;15.470;2024-03-23T01:41:52;7.60;;;6.20;;
44048;SDS011;29717;47.028;15.470;2024-03-23T01:44:18;7.65;;;6.88;;
44048;SDS011;29717;47.028;15.470;2024-03-23T01:46:46;10.50;;;6.88;;
44048;SDS011;29717;47.028;15.470;2024-03-23T01:49:12;7.80;;;6.07;;
44048;SDS011;29717;47.028;15.470;2024-03-23T01:51:38;7.72;;;6.30;;
44048;SDS011;29717;47.028;15.470;2024-03-23T01:54:05;7.43;;;5.97;;
44048;SDS011;29717;47.028;15.470;2024-03-23T01:56:31;7.05;;;6.35;;
44048;SDS011;29717;47.028;15.470;2024-03-23T01:59:00;10.80;;;6.63;;
44048;SDS011;29717;47.028;15.470;2024-03-23T02:01:26;9.53;;;6.80;;
44048;SDS011;29717;47.028;15.470;2024-03-23T02:03:54;9.15;;;6.57;;
44048;SDS011;29717;47.028;15.470;2024-03-23T02:06:19;8.13;;;6.83;;
44048;SDS011;29717;47.028;15.470;2024-03-23T02:08:47;7.28;;;6.00;;
44048;SDS011;29717;47.028;15.470;2024-03-23T02:11:13;7.80;;;6.95;;
44048;SDS011;29717;47.028;15.470;2024-03-23T02:13:40;7.17;;;6.33;;
44048;SDS011;29717;47.028;15.470;2024-03-23T02:16:06;10.25;;;6.78;;
44048;SDS011;29717;47.028;15.470;2024-03-23T02:18:32;7.67;;;6.43;;
44048;SDS011;29717;47.028;15.470;2024-03-23T02:21:00;10.30;;;6.53;;
44048;SDS011;29717;47.028;15.470;2024-03-23T02:23:29;9.07;;;6.70;;
44048;SDS011;29717;47.028;15.470;2024-03-23T02:25:55;11.80;;;6.70;;
44048;SDS011;29717;47.028;15.470;2024-03-23T02:28:22;10.83;;;6.33;;
44048;SDS011;29717;47.028;15.470;2024-03-23T02:30:48;8.48;;;6.68;;
44048;SDS011;29717;47.028;15.470;2024-03-23T02:33:15;8.70;;;6.60;;
44048;SDS011;29717;47.028;15.470;2024-03-23T02:35:40;11.20;;;6.73;;
44048;SDS011;29717;47.028;15.470;2024-03-23T02:38:07;10.83;;;7.00;;
44048;SDS011;29717;47.028;15.470;2024-03-23T02:40:34;10.13;;;7.27;;
44048;SDS011;29717;47.028;15.470;2024-03-23T02:43:02;13.17;;;10.03;;
44048;SDS011;29717;47.028;15.470;2024-03-23T02:45:28;14.80;;;9.30;;
44048;SDS011;29717;47.028;15.470;2024-03-23T02:47:54;9.83;;;8.00;;
44048;SDS011;29717;47.028;15.470;2024-03-23T02:50:20;9.27;;;7.40;;
44048;SDS011;29717;47.028;15.470;2024-03-23T02:52:47;10.20;;;8.33;;
44048;SDS011;29717;47.028;15.470;2024-03-23T02:55:13;10.40;;;7.00;;
44048;SDS011;29717;47.028;15.470;2024-03-23T02:57:41;9.80;;;7.00;;
44048;SDS011;29717;47.028;15.470;2024-03-23T03:00:07;12.40;;;7.80;;
44048;SDS011;29717;47.028;15.470;2024-03-23T03:02:36;13.50;;;7.80;;
44048;SDS011;29717;47.028;15.470;2024-03-23T03:05:02;12.20;;;8.47;;
44048;SDS011;29717;47.028;15.470;2024-03-23T03:07:30;12.13;;;8.17;;
44048;SDS011;29717;47.028;15.470;2024-03-23T03:09:55;10.47;;;7.57;;
44048;SDS011;29717;47.028;15.470;2024-03-23T03:12:22;12.03;;;7.47;;
44048;SDS011;29717;47.028;15.470;2024-03-23T03:14:49;10.53;;;8.17;;
44048;SDS011;29717;47.028;15.470;2024-03-23T03:17:16;12.00;;;7.70;;
44048;SDS011;29717;47.028;15.470;2024-03-23T03:19:42;10.33;;;7.43;;
44048;SDS011;29717;47.028;15.470;2024-03-23T03:22:08;8.13;;;7.03;;
44048;SDS011;29717;47.028;15.470;2024-03-23T03:24:34;7.80;;;6.80;;
44048;SDS011;29717;47.028;15.470;2024-03-23T03:27:01;7.87;;;6.13;;
44048;SDS011;29717;47.028;15.470;2024-03-23T03:29:28;7.97;;;6.20;;
44048;SDS011;29717;47.028;15.470;2024-03-23T03:32:03;8.33;;;6.80;;
44048;SDS011;29717;47.028;15.470;2024-03-23T03:34:29;9.03;;;6.50;;
44048;SDS011;29717;47.028;15.470;2024-03-23T03:36:56;8.07;;;6.67;;
44048;SDS011;29717;47.028;15.470;2024-03-23T03:39:21;7.37;;;6.43;;
44048;SDS011;29717;47.028;15.470;2024-03-23T03:41:49;7.90;;;6.07;;
44048;SDS011;29717;47.028;15.470;2024-03-23T03:44:15;9.03;;;6.13;;
44048;SDS011;29717;47.028;15.470;2024-03-23T03:46:42;10.63;;;6.50;;
44048;SDS011;29717;47.028;15.470;2024-03-23T03:49:09;8.27;;;6.30;;
44048;SDS011;29717;47.028;15.470;2024-03-23T03:51:36;6.93;;;6.10;;
44048;SDS011;29717;47.028;15.470;2024-03-23T03:54:02;7.17;;;6.40;;
44048;SDS011;29717;47.028;15.470;2024-03-23T03:56:29;10.63;;;6.03;;
44048;SDS011;29717;47.028;15.470;2024-03-23T03:58:54;6.37;;;5.47;;
44048;SDS011;29717;47.028;15.470;2024-03-23T04:01:21;8.30;;;5.77;;
44048;SDS011;29717;47.028;15.470;2024-03-23T04:03:47;8.10;;;5.97;;
44048;SDS011;29717;47.028;15.470;2024-03-23T04:06:20;8.53;;;5.90;;
44048;SDS011;29717;47.028;15.470;2024-03-23T04:08:45;8.10;;;5.87;;
44048;SDS011;29717;47.028;15.470;2024-03-23T04:11:12;7.23;;;6.40;;
44048;SDS011;29717;47.028;15.470;2024-03-23T04:13:38;8.77;;;6.43;;
44048;SDS011;29717;47.028;15.470;2024-03-23T04:16:07;6.87;;;6.17;;
44048;SDS011;29717;47.028;15.470;2024-03-23T04:18:32;8.57;;;6.07;;
44048;SDS011;29717;47.028;15.470;2024-03-23T04:20:59;7.20;;;5.90;;
44048;SDS011;29717;47.028;15.470;2024-03-23T04:23:27;7.87;;;6.17;;
44048;SDS011;29717;47.028;15.470;2024-03-23T04:26:02;6.70;;;5.83;;
44048;SDS011;29717;47.028;15.470;2024-03-23T04:28:28;6.70;;;6.07;;
44048;SDS011;29717;47.028;15.470;2024-03-23T04:30:55;7.43;;;5.87;;
44048;SDS011;29717;47.028;15.470;2024-03-23T04:33:21;6.83;;;5.80;;
44048;SDS011;29717;47.028;15.470;2024-03-23T04:35:48;8.57;;;6.20;;
44048;SDS011;29717;47.028;15.470;2024-03-23T04:38:14;9.13;;;5.83;;
44048;SDS011;29717;47.028;15.470;2024-03-23T04:40:43;6.50;;;5.57;;
44048;SDS011;29717;47.028;15.470;2024-03-23T04:43:10;6.50;;;5.73;;
44048;SDS011;29717;47.028;15.470;2024-03-23T04:45:36;7.90;;;6.13;;
44048;SDS011;29717;47.028;15.470;2024-03-23T04:48:03;10.10;;;6.63;;
44048;SDS011;29717;47.028;15.470;2024-03-23T04:50:30;9.10;;;6.20;;
44048;SDS011;29717;47.028;15.470;2024-03-23T04:52:56;7.27;;;6.37;;
44048;SDS011;29717;47.028;15.470;2024-03-23T04:55:23;6.97;;;6.23;;
44048;SDS011;29717;47.028;15.470;2024-03-23T04:57:50;8.10;;;5.80;;
44048;SDS011;29717;47.028;15.470;2024-03-23T05:00:17;9.83;;;6.53;;
44048;SDS011;29717;47.028;15.470;2024-03-23T05:02:44;8.63;;;6.80;;
44048;SDS011;29717;47.028;15.470;2024-03-23T05:05:11;8.43;;;6.60;;
44048;SDS011;29717;47.028;15.470;2024-03-23T05:07:37;11.23;;;7.30;;
44048;SDS011;29717;47.028;15.470;2024-03-23T05:10:04;8.77;;;7.03;;
44048;SDS011;29717;47.028;15.470;2024-03-23T05:12:30;8.93;;;7.40;;
44048;SDS011;29717;47.028;15.470;2024-03-23T05:14:59;11.10;;;7.83;;
44048;SDS011;29717;47.028;15.470;2024-03-23T05:17:24;12.23;;;7.07;;
44048;SDS011;29717;47.028;15.470;2024-03-23T05:19:51;8.20;;;7.10;;
44048;SDS011;29717;47.028;15.470;2024-03-23T05:22:17;15.03;;;8.43;;
44048;SDS011;29717;47.028;15.470;2024-03-23T05:24:44;11.57;;;8.60;;
44048;SDS011;29717;47.028;15.470;2024-03-23T05:27:10;10.37;;;6.93;;
44048;SDS011;29717;47.028;15.470;2024-03-23T05:29:37;10.23;;;6.73;;
44048;SDS011;29717;47.028;15.470;2024-03-23T05:32:05;8.90;;;7.00;;
44048;SDS011;29717;47.028;15.470;2024-03-23T05:34:31;7.60;;;6.80;;
44048;SDS011;29717;47.028;15.470;2024-03-23T05:36:57;11.87;;;6.67;;
44048;SDS011;29717;47.028;15.470;2024-03-23T05:39:24;8.83;;;6.87;;
44048;SDS011;29717;47.028;15.470;2024-03-23T05:41:49;10.43;;;6.30;;
44048;SDS011;29717;47.028;15.470;2024-03-23T05:44:16;8.63;;;6.43;;
44048;SDS011;29717;47.028;15.470;2024-03-23T05:46:42;11.20;;;7.43;;
44048;SDS011;29717;47.028;15.470;2024-03-23T05:49:15;9.60;;;6.73;;
44048;SDS011;29717;47.028;15.470;2024-03-23T05:51:41;7.77;;;6.63;;
44048;SDS011;29717;47.028;15.470;2024-03-23T05:54:07;10.23;;;7.83;;
44048;SDS011;29717;47.028;15.470;2024-03-23T05:56:33;9.70;;;6.70;;
44048;SDS011;29717;47.028;15.470;2024-03-23T05:59:00;10.83;;;6.63;;
44048;SDS011;29717;47.028;15.470;2024-03-23T06:01:26;7.80;;;6.57;;
44048;SDS011;29717;47.028;15.470;2024-03-23T06:03:54;7.97;;;6.33;;
44048;SDS011;29717;47.028;15.470;2024-03-23T06:06:21;6.93;;;6.20;;
44048;SDS011;29717;47.028;15.470;2024-03-23T06:08:48;7.60;;;6.45;;
44048;SDS011;29717;47.028;15.470;2024-03-23T06:11:13;8.73;;;6.82;;
44048;SDS011;29717;47.028;15.470;2024-03-23T06:13:40;9.23;;;6.82;;
44048;SDS011;29717;47.028;15.470;2024-03-23T06:16:06;7.75;;;6.55;;
44048;SDS011;29717;47.028;15.470;2024-03-23T06:18:33;7.25;;;5.70;;
44048;SDS011;29717;47.028;15.470;2024-03-23T06:20:59;13.13;;;6.00;;
44048;SDS011;29717;47.028;15.470;2024-03-23T06:23:28;11.30;;;6.85;;
44048;SDS011;29717;47.028;15.470;2024-03-23T06:25:55;10.40;;;6.70;;
44048;SDS011;29717;47.028;15.470;2024-03-23T06:28:21;10.20;;;6.80;;
44048;SDS011;29717;47.028;15.470;2024-03-23T06:30:49;8.65;;;7.18;;
44048;SDS011;29717;47.028;15.470;2024-03-23T06:33:14;13.13;;;6.35;;
44048;SDS011;29717;47.028;15.470;2024-03-23T06:35:41;11.13;;;6.50;;
44048;SDS011;29717;47.028;15.470;2024-03-23T06:38:07;10.70;;;7.13;;
44048;SDS011;29717;47.028;15.470;2024-03-23T06:40:37;6.95;;;6.25;;
44048;SDS011;29717;47.028;15.470;2024-03-23T06:43:02;9.63;;;7.35;;
44048;SDS011;29717;47.028;15.470;2024-03-23T06:45:30;8.93;;;6.65;;
44048;SDS011;29717;47.028;15.470;2024-03-23T06:47:56;10.55;;;6.10;;
44048;SDS011;29717;47.028;15.470;2024-03-23T06:50:23;8.40;;;5.63;;
44048;SDS011;29717;47.028;15.470;2024-03-23T06:52:49;8.45;;;5.75;;
44048;SDS011;29717;47.028;15.470;2024-03-23T06:55:16;7.82;;;5.97;;
44048;SDS011;29717;47.028;15.470;2024-03-23T06:57:43;7.13;;;5.65;;
44048;SDS011;29717;47.028;15.470;2024-03-23T07:00:10;7.25;;;5.55;;
44048;SDS011;29717;47.028;15.470;2024-03-23T07:02:36;9.13;;;6.25;;
44048;SDS011;29717;47.028;15.470;2024-03-23T07:05:03;6.50;;;5.80;;
44048;SDS011;29717;47.028;15.470;2024-03-23T07:07:29;7.15;;;5.65;;
44048;SDS011;29717;47.028;15.470;2024-03-23T07:09:56;8.20;;;6.05;;
44048;SDS011;29717;47.028;15.470;2024-03-23T07:12:22;7.68;;;6.00;;
44048;SDS011;29717;47.028;15.470;2024-03-23T07:14:51;6.40;;;5.75;;
44048;SDS011;29717;47.028;15.470;2024-03-23T07:17:16;14.20;;;6.43;;
44048;SDS011;29717;47.028;15.470;2024-03-23T07:19:44;12.40;;;5.72;;
44048;SDS011;29717;47.028;15.470;2024-03-23T07:22:09;8.15;;;5.97;;
44048;SDS011;29717;47.028;15.470;2024-03-23T07:24:36;10.55;;;6.72;;
44048;SDS011;29717;47.028;15.470;2024-03-23T07:27:04;10.02;;;6.85;;
44048;SDS011;29717;47.028;15.470;2024-03-23T07:29:35;11.27;;;9.13;;
44048;SDS011;29717;47.028;15.470;2024-03-23T07:32:02;14.98;;;10.38;;
44048;SDS011;29717;47.028;15.470;2024-03-23T07:34:29;12.68;;;9.05;;
44048;SDS011;29717;47.028;15.470;2024-03-23T07:36:54;12.13;;;8.38;;
44048;SDS011;29717;47.028;15.470;2024-03-23T07:39:21;10.13;;;8.70;;
44048;SDS011;29717;47.028;15.470;2024-03-23T07:41:47;9.50;;;8.32;;
44048;SDS011;29717;47.028;15.470;2024-03-23T07:44:13;11.23;;;8.68;;
44048;SDS011;29717;47.028;15.470;2024-03-23T07:46:39;16.48;;;9.07;;
44048;SDS011;29717;47.028;15.470;2024-03-23T07:49:08;11.32;;;8.23;;
44048;SDS011;29717;47.028;15.470;2024-03-23T07:51:33;13.70;;;10.63;;
44048;SDS011;29717;47.028;15.470;2024-03-23T07:54:00;15.25;;;9.95;;
44048;SDS011;29717;47.028;15.470;2024-03-23T07:56:26;13.95;;;10.70;;
44048;SDS011;29717;47.028;15.470;2024-03-23T07:58:53;19.35;;;12.05;;
44048;SDS011;29717;47.028;15.470;2024-03-23T08:01:18;23.95;;;16.05;;
44048;SDS011;29717;47.028;15.470;2024-03-23T08:03:45;24.77;;;16.15;;
44048;SDS011;29717;47.028;15.470;2024-03-23T08:06:13;17.75;;;10.50;;
44048;SDS011;29717;47.028;15.470;2024-03-23T08:08:40;17.65;;;8.77;;
44048;SDS011;29717;47.028;15.470;2024-03-23T08:11:06;16.70;;;8.85;;
44048;SDS011;29717;47.028;15.470;2024-03-23T08:13:33;9.88;;;8.30;;
44048;SDS011;29717;47.028;15.470;2024-03-23T08:15:59;10.32;;;8.00;;
44048;SDS011;29717;47.028;15.470;2024-03-23T08:18:26;8.98;;;7.70;;
44048;SDS011;29717;47.028;15.470;2024-03-23T08:20:55;12.60;;;7.65;;
44048;SDS011;29717;47.028;15.470;2024-03-23T08:23:25;9.27;;;7.47;;
44048;SDS011;29717;47.028;15.470;2024-03-23T08:25:52;9.50;;;7.25;;
44048;SDS011;29717;47.028;15.470;2024-03-23T08:28:22;9.02;;;7.75;;
44048;SDS011;29717;47.028;15.470;2024-03-23T08:30:49;10.63;;;7.50;;
44048;SDS011;29717;47.028;15.470;2024-03-23T08:33:15;8.65;;;7.10;;
44048;SDS011;29717;47.028;15.470;2024-03-23T08:35:42;11.07;;;9.13;;
44048;SDS011;29717;47.028;15.470;2024-03-23T08:38:07;16.20;;;9.23;;
44048;SDS011;29717;47.028;15.470;2024-03-23T08:40:36;10.93;;;7.78;;
44048;SDS011;29717;47.028;15.470;2024-03-23T08:43:01;10.82;;;7.47;;
44048;SDS011;29717;47.028;15.470;2024-03-23T08:45:28;8.05;;;7.05;;
44048;SDS011;29717;47.028;15.470;2024-03-23T08:47:54;7.80;;;6.22;;
44048;SDS011;29717;47.028;15.470;2024-03-23T08:50:20;9.38;;;7.65;;
44048;SDS011;29717;47.028;15.470;2024-03-23T08:52:47;12.23;;;7.30;;
44048;SDS011;29717;47.028;15.470;2024-03-23T08:55:13;8.18;;;6.50;;
44048;SDS011;29717;47.028;15.470;2024-03-23T08:57:41;8.80;;;7.10;;
44048;SDS011;29717;47.028;15.470;2024-03-23T09:00:08;11.40;;;6.65;;
44048;SDS011;29717;47.028;15.470;2024-03-23T09:02:34;8.18;;;6.35;;
44048;SDS011;29717;47.028;15.470;2024-03-23T09:05:01;7.18;;;6.15;;
44048;SDS011;29717;47.028;15.470;2024-03-23T09:07:30;10.55;;;6.32;;
44048;SDS011;29717;47.028;15.470;2024-03-23T09:09:56;6.88;;;6.18;;
44048;SDS011;29717;47.028;15.470;2024-03-23T09:12:22;7.63;;;5.78;;
44048;SDS011;29717;47.028;15.470;2024-03-23T09:14:51;8.80;;;6.07;;
44048;SDS011;29717;47.028;15.470;2024-03-23T09:17:16;10.10;;;6.28;;
44048;SDS011;29717;47.028;15.470;2024-03-23T09:19:44;11.18;;;7.25;;
44048;SDS011;29717;47.028;15.470;2024-03-23T09:22:09;10.80;;;7.78;;
44048;SDS011;29717;47.028;15.470;2024-03-23T09:24:36;13.82;;;8.45;;
44048;SDS011;29717;47.028;15.470;2024-03-23T09:27:02;10.32;;;7.82;;
44048;SDS011;29717;47.028;15.470;2024-03-23T09:29:29;8.15;;;6.50;;
44048;SDS011;29717;47.028;15.470;2024-03-23T09:31:56;8.40;;;5.75;;
44048;SDS011;29717;47.028;15.470;2024-03-23T09:34:23;7.50;;;5.50;;
44048;SDS011;29717;47.028;15.470;2024-03-23T09:36:50;6.38;;;4.95;;
44048;SDS011;29717;47.028;15.470;2024-03-23T09:39:17;8.68;;;5.20;;
44048;SDS011;29717;47.028;15.470;2024-03-23T09:41:43;6.35;;;5.07;;
44048;SDS011;29717;47.028;15.470;2024-03-23T09:44:10;6.75;;;5.00;;
44048;SDS011;29717;47.028;15.470;2024-03-23T09:46:35;8.88;;;4.72;;
44048;SDS011;29717;47.028;15.470;2024-03-23T09:49:06;4.53;;;3.72;;
44048;SDS011;29717;47.028;15.470;2024-03-23T09:51:34;4.47;;;3.60;;
44048;SDS011;29717;47.028;15.470;2024-03-23T09:54:01;8.27;;;4.72;;
44048;SDS011;29717;47.028;15.470;2024-03-23T09:56:27;5.18;;;4.50;;
44048;SDS011;29717;47.028;15.470;2024-03-23T09:58:59;7.85;;;5.00;;
44048;SDS011;29717;47.028;15.470;2024-03-23T10:01:25;5.40;;;4.90;;
44048;SDS011;29717;47.028;15.470;2024-03-23T10:03:52;6.60;;;4.70;;
44048;SDS011;29717;47.028;15.470;2024-03-23T10:06:22;4.70;;;4.30;;
44048;SDS011;29717;47.028;15.470;2024-03-23T10:08:50;5.40;;;4.43;;
44048;SDS011;29717;47.028;15.470;2024-03-23T10:11:16;4.75;;;4.35;;
44048;SDS011;29717;47.028;15.470;2024-03-23T10:13:44;6.18;;;4.70;;
44048;SDS011;29717;47.028;15.470;2024-03-23T10:16:11;7.40;;;4.88;;
44048;SDS011;29717;47.028;15.470;2024-03-23T10:18:38;9.48;;;5.25;;
44048;SDS011;29717;47.028;15.470;2024-03-23T10:21:07;6.90;;;4.63;;
44048;SDS011;29717;47.028;15.470;2024-03-23T10:23:37;6.93;;;5.07;;
44048;SDS011;29717;47.028;15.470;2024-03-23T10:26:13;5.57;;;4.72;;
44048;SDS011;29717;47.028;15.470;2024-03-23T10:28:50;4.80;;;4.30;;
44048;SDS011;29717;47.028;15.470;2024-03-23T10:31:16;4.78;;;3.92;;
44048;SDS011;29717;47.028;15.470;2024-03-23T10:33:44;5.25;;;4.15;;
44048;SDS011;29717;47.028;15.470;2024-03-23T10:36:10;5.55;;;3.83;;
44048;SDS011;29717;47.028;15.470;2024-03-23T10:38:38;4.38;;;3.85;;
44048;SDS011;29717;47.028;15.470;2024-03-23T10:41:05;4.43;;;3.92;;
44048;SDS011;29717;47.028;15.470;2024-03-23T10:43:32;5.75;;;3.97;;
44048;SDS011;29717;47.028;15.470;2024-03-23T10:45:58;4.97;;;3.55;;
44048;SDS011;29717;47.028;15.470;2024-03-23T10:48:25;6.50;;;3.90;;
44048;SDS011;29717;47.028;15.470;2024-03-23T10:50:50;5.35;;;4.20;;
44048;SDS011;29717;47.028;15.470;2024-03-23T10:53:17;5.60;;;3.45;;
44048;SDS011;29717;47.028;15.470;2024-03-23T10:55:45;3.78;;;3.38;;
44048;SDS011;29717;47.028;15.470;2024-03-23T10:58:11;4.00;;;3.60;;
44048;SDS011;29717;47.028;15.470;2024-03-23T11:00:38;4.55;;;2.92;;
44048;SDS011;29717;47.028;15.470;2024-03-23T11:05:46;3.60;;;3.30;;
44048;SDS011;29717;47.028;15.470;2024-03-23T11:08:22;4.13;;;2.95;;
44048;SDS011;29717;47.028;15.470;2024-03-23T11:10:56;3.42;;;3.10;;
44048;SDS011;29717;47.028;15.470;2024-03-23T11:13:38;8.32;;;4.13;;
44048;SDS011;29717;47.028;15.470;2024-03-23T11:16:12;3.90;;;3.50;;
44048;SDS011;29717;47.028;15.470;2024-03-23T11:18:39;4.47;;;3.65;;
44048;SDS011;29717;47.028;15.470;2024-03-23T11:21:06;8.05;;;3.55;;
44048;SDS011;29717;47.028;15.470;2024-03-23T11:23:33;3.78;;;3.47;;
44048;SDS011;29717;47.028;15.470;2024-03-23T11:26:01;4.20;;;3.88;;
44048;SDS011;29717;47.028;15.470;2024-03-23T11:28:29;4.55;;;3.65;;
44048;SDS011;29717;47.028;15.470;2024-03-23T11:30:55;5.03;;;4.03;;
44048;SDS011;29717;47.028;15.470;2024-03-23T11:33:22;4.00;;;3.63;;
44048;SDS011;29717;47.028;15.470;2024-03-23T11:35:48;4.68;;;3.83;;
44048;SDS011;29717;47.028;15.470;2024-03-23T11:38:17;8.77;;;4.18;;
44048;SDS011;29717;47.028;15.470;2024-03-23T11:40:44;3.85;;;3.40;;
44048;SDS011;29717;47.028;15.470;2024-03-23T11:43:13;4.10;;;3.67;;
44048;SDS011;29717;47.028;15.470;2024-03-23T11:45:40;3.60;;;3.30;;
44048;SDS011;29717;47.028;15.470;2024-03-23T11:48:08;6.07;;;3.83;;
44048;SDS011;29717;47.028;15.470;2024-03-23T11:50:37;5.18;;;3.78;;
44048;SDS011;29717;47.028;15.470;2024-03-23T11:53:11;4.00;;;3.47;;
44048;SDS011;29717;47.028;15.470;2024-03-23T11:55:47;4.47;;;3.60;;
44048;SDS011;29717;47.028;15.470;2024-03-23T11:58:16;6.70;;;3.80;;
44048;SDS011;29717;47.028;15.470;2024-03-23T12:00:42;4.00;;;3.58;;
44048;SDS011;29717;47.028;15.470;2024-03-23T12:03:09;3.65;;;3.30;;
44048;SDS011;29717;47.028;15.470;2024-03-23T12:05:37;6.57;;;3.78;;
44048;SDS011;29717;47.028;15.470;2024-03-23T12:08:23;4.00;;;3.60;;
44048;SDS011;29717;47.028;15.470;2024-03-23T12:10:50;4.20;;;3.80;;
44048;SDS011;29717;47.028;15.470;2024-03-23T12:13:19;7.35;;;3.78;;
44048;SDS011;29717;47.028;15.470;2024-03-23T12:15:45;3.95;;;3.65;;
44048;SDS011;29717;47.028;15.470;2024-03-23T12:18:13;4.68;;;3.83;;
44048;SDS011;29717;47.028;15.470;2024-03-23T12:20:38;4.03;;;3.30;;
44048;SDS011;29717;47.028;15.470;2024-03-23T12:23:06;5.82;;;3.13;;
44048;SDS011;29717;47.028;15.470;2024-03-23T12:25:32;4.32;;;3.58;;
44048;SDS011;29717;47.028;15.470;2024-03-23T12:27:58;4.40;;;3.28;;
44048;SDS011;29717;47.028;15.470;2024-03-23T12:30:26;4.20;;;3.28;;
44048;SDS011;29717;47.028;15.470;2024-03-23T12:32:52;3.28;;;3.00;;
44048;SDS011;29717;47.028;15.470;2024-03-23T12:35:18;13.00;;;3.80;;
44048;SDS011;29717;47.028;15.470;2024-03-23T12:37:45;5.05;;;2.80;;
44048;SDS011;29717;47.028;15.470;2024-03-23T12:40:10;4.28;;;3.38;;
44048;SDS011;29717;47.028;15.470;2024-03-23T12:42:37;3.30;;;3.00;;
44048;SDS011;29717;47.028;15.470;2024-03-23T12:45:03;4.47;;;2.67;;
44048;SDS011;29717;47.028;15.470;2024-03-23T12:47:32;3.30;;;3.00;;
44048;SDS011;29717;47.028;15.470;2024-03-23T12:49:57;2.70;;;2.50;;
44048;SDS011;29717;47.028;15.470;2024-03-23T12:52:24;2.80;;;2.60;;
44048;SDS011;29717;47.028;15.470;2024-03-23T12:54:54;3.22;;;2.55;;
44048;SDS011;29717;47.028;15.470;2024-03-23T12:57:22;2.20;;;2.00;;
44048;SDS011;29717;47.028;15.470;2024-03-23T12:59:48;2.58;;;2.33;;
44048;SDS011;29717;47.028;15.470;2024-03-23T13:02:16;3.17;;;2.50;;
44048;SDS011;29717;47.028;15.470;2024-03-23T13:04:43;2.40;;;2.20;;
44048;SDS011;29717;47.028;15.470;2024-03-23T13:07:10;3.83;;;2.35;;
44048;SDS011;29717;47.028;15.470;2024-03-23T13:09:36;2.83;;;2.15;;
44048;SDS011;29717;47.028;15.470;2024-03-23T13:12:02;3.33;;;2.33;;
44048;SDS011;29717;47.028;15.470;2024-03-23T13:14:28;4.75;;;2.55;;
44048;SDS011;29717;47.028;15.470;2024-03-23T13:16:55;3.45;;;2.53;;
44048;SDS011;29717;47.028;15.470;2024-03-23T13:19:20;3.90;;;2.80;;
44048;SDS011;29717;47.028;15.470;2024-03-23T13:21:53;2.95;;;2.45;;
44048;SDS011;29717;47.028;15.470;2024-03-23T13:24:21;4.72;;;2.60;;
44048;SDS011;29717;47.028;15.470;2024-03-23T13:26:48;4.82;;;2.75;;
44048;SDS011;29717;47.028;15.470;2024-03-23T13:29:13;3.00;;;2.70;;
44048;SDS011;29717;47.028;15.470;2024-03-23T13:31:40;8.30;;;3.05;;
44048;SDS011;29717;47.028;15.470;2024-03-23T13:34:05;6.28;;;2.72;;
44048;SDS011;29717;47.028;15.470;2024-03-23T13:36:32;3.35;;;2.83;;
44048;SDS011;29717;47.028;15.470;2024-03-23T13:38:59;7.28;;;2.90;;
44048;SDS011;29717;47.028;15.470;2024-03-23T13:41:26;6.32;;;3.30;;
44048;SDS011;29717;47.028;15.470;2024-03-23T13:43:52;6.72;;;3.47;;
44048;SDS011;29717;47.028;15.470;2024-03-23T13:46:19;4.70;;;2.92;;
44048;SDS011;29717;47.028;15.470;2024-03-23T13:48:44;5.05;;;3.45;;
44048;SDS011;29717;47.028;15.470;2024-03-23T13:51:11;3.65;;;3.03;;
44048;SDS011;29717;47.028;15.470;2024-03-23T13:53:38;6.90;;;3.33;;
44048;SDS011;29717;47.028;15.470;2024-03-23T13:56:06;6.68;;;3.40;;
44048;SDS011;29717;47.028;15.470;2024-03-23T13:58:32;4.45;;;3.30;;
44048;SDS011;29717;47.028;15.470;2024-03-23T14:00:58;3.80;;;3.45;;
44048;SDS011;29717;47.028;15.470;2024-03-23T14:03:24;7.28;;;3.42;;
44048;SDS011;29717;47.028;15.470;2024-03-23T14:05:52;6.63;;;3.90;;
44048;SDS011;29717;47.028;15.470;2024-03-23T14:08:19;4.95;;;3.45;;
44048;SDS011;29717;47.028;15.470;2024-03-23T14:10:47;8.00;;;3.60;;
44048;SDS011;29717;47.028;15.470;2024-03-23T14:13:14;3.83;;;3.35;;
44048;SDS011;29717;47.028;15.470;2024-03-23T14:15:40;4.45;;;3.88;;
44048;SDS011;29717;47.028;15.470;2024-03-23T14:18:06;3.78;;;3.47;;
44048;SDS011;29717;47.028;15.470;2024-03-23T14:20:33;3.60;;;3.30;;
44048;SDS011;29717;47.028;15.470;2024-03-23T14:22:59;5.00;;;3.45;;
44048;SDS011;29717;47.028;15.470;2024-03-23T14:25:26;4.60;;;2.92;;
44048;SDS011;29717;47.028;15.470;2024-03-23T14:27:54;4.93;;;3.70;;
44048;SDS011;29717;47.028;15.470;2024-03-23T14:30:22;4.15;;;3.63;;
44048;SDS011;29717;47.028;15.470;2024-03-23T14:32:48;11.70;;;3.88;;
44048;SDS011;29717;47.028;15.470;2024-03-23T14:35:16;4.13;;;3.67;;
44048;SDS011;29717;47.028;15.470;2024-03-23T14:37:42;5.38;;;3.45;;
44048;SDS011;29717;47.028;15.470;2024-03-23T14:40:09;3.97;;;3.17;;
44048;SDS011;29717;47.028;15.470;2024-03-23T14:42:38;8.50;;;3.65;;
44048;SDS011;29717;47.028;15.470;2024-03-23T14:45:05;6.20;;;3.53;;
44048;SDS011;29717;47.028;15.470;2024-03-23T14:47:32;9.52;;;3.35;;
44048;SDS011;29717;47.028;15.470;2024-03-23T14:49:58;15.23;;;3.85;;
44048;SDS011;29717;47.028;15.470;2024-03-23T14:52:24;3.25;;;2.92;;
44048;SDS011;29717;47.028;15.470;2024-03-23T14:54:51;8.35;;;3.45;;
44048;SDS011;29717;47.028;15.470;2024-03-23T14:57:16;5.07;;;3.53;;
44048;SDS011;29717;47.028;15.470;2024-03-23T14:59:45;5.75;;;3.40;;
44048;SDS011;29717;47.028;15.470;2024-03-23T15:02:11;4.45;;;3.50;;
44048;SDS011;29717;47.028;15.470;2024-03-23T15:04:40;11.18;;;4.10;;
44048;SDS011;29717;47.028;15.470;2024-03-23T15:07:07;18.05;;;4.70;;
44048;SDS011;29717;47.028;15.470;2024-03-23T15:09:33;3.92;;;3.53;;
44048;SDS011;29717;47.028;15.470;2024-03-23T15:11:59;5.15;;;3.53;;
44048;SDS011;29717;47.028;15.470;2024-03-23T15:14:26;7.28;;;3.33;;
44048;SDS011;29717;47.028;15.470;2024-03-23T15:16:52;6.30;;;3.38;;
44048;SDS011;29717;47.028;15.470;2024-03-23T15:19:19;5.05;;;3.28;;
44048;SDS011;29717;47.028;15.470;2024-03-23T15:21:46;3.33;;;3.03;;
44048;SDS011;29717;47.028;15.470;2024-03-23T15:24:13;4.70;;;3.25;;
44048;SDS011;29717;47.028;15.470;2024-03-23T15:26:39;3.90;;;1.67;;